sensor_id;sensor_type;location;lat;lon;timestamp;P1;durP1;ratioP1;P2;durP2;ratioP2
33188;SDS011;52601;53.070;10.600;2023-04-24T00:00:40;2.87;;;2.00;;
33188;SDS011;52601;53.070;10.600;2023-04-24T00:03:26;3.43;;;2.47;;
33188;SDS011;52601;53.070;10.600;2023-04-24T00:06:13;4.95;;;2.60;;
33188;SDS011;52601;53.070;10.600;2023-04-24T00:08:59;1.93;;;1.80;;
33188;SDS011;52601;53.070;10.600;2023-04-24T00:11:45;2.17;;;1.73;;
33188;SDS011;52601;53.070;10.600;2023-04-24T00:14:31;2.95;;;2.33;;
33188;SDS011;52601;53.070;10.600;2023-04-24T00:17:16;3.10;;;2.33;;
33188;SDS011;52601;53.070;10.600;2023-04-24T00:20:05;4.00;;;2.53;;
33188;SDS011;52601;53.070;10.600;2023-04-24T00:22:51;3.53;;;2.10;;
33188;SDS011;52601;53.070;10.600;2023-04-24T00:25:37;3.92;;;2.95;;
33188;SDS011;52601;53.070;10.600;2023-04-24T00:28:23;5.07;;;3.00;;
33188;SDS011;52601;53.070;10.600;2023-04-24T00:31:08;3.07;;;2.30;;
33188;SDS011;52601;53.070;10.600;2023-04-24T00:33:54;2.57;;;2.37;;
33188;SDS011;52601;53.070;10.600;2023-04-24T00:36:39;2.83;;;2.42;;
33188;SDS011;52601;53.070;10.600;2023-04-24T00:39:26;6.35;;;2.28;;
33188;SDS011;52601;53.070;10.600;2023-04-24T00:42:11;3.78;;;2.00;;
33188;SDS011;52601;53.070;10.600;2023-04-24T00:44:56;2.50;;;1.83;;
33188;SDS011;52601;53.070;10.600;2023-04-24T00:47:43;2.92;;;1.77;;
33188;SDS011;52601;53.070;10.600;2023-04-24T00:50:30;2.53;;;1.58;;
33188;SDS011;52601;53.070;10.600;2023-04-24T00:53:16;2.13;;;1.33;;
33188;SDS011;52601;53.070;10.600;2023-04-24T00:56:02;2.73;;;1.73;;
33188;SDS011;52601;53.070;10.600;2023-04-24T00:58:47;3.22;;;1.50;;
33188;SDS011;52601;53.070;10.600;2023-04-24T01:01:33;1.38;;;1.27;;
33188;SDS011;52601;53.070;10.600;2023-04-24T01:04:19;2.15;;;1.30;;
33188;SDS011;52601;53.070;10.600;2023-04-24T01:07:05;1.13;;;1.02;;
33188;SDS011;52601;53.070;10.600;2023-04-24T01:09:55;2.28;;;1.08;;
33188;SDS011;52601;53.070;10.600;2023-04-24T01:12:41;1.70;;;1.35;;
33188;SDS011;52601;53.070;10.600;2023-04-24T01:15:27;1.33;;;0.90;;
33188;SDS011;52601;53.070;10.600;2023-04-24T01:18:13;0.80;;;0.80;;
33188;SDS011;52601;53.070;10.600;2023-04-24T01:20:59;1.27;;;1.00;;
33188;SDS011;52601;53.070;10.600;2023-04-24T01:23:47;1.13;;;1.02;;
33188;SDS011;52601;53.070;10.600;2023-04-24T01:26:36;1.40;;;0.95;;
33188;SDS011;52601;53.070;10.600;2023-04-24T01:29:21;0.95;;;0.88;;
33188;SDS011;52601;53.070;10.600;2023-04-24T01:32:07;0.95;;;0.80;;
33188;SDS011;52601;53.070;10.600;2023-04-24T01:34:52;0.98;;;0.88;;
33188;SDS011;52601;53.070;10.600;2023-04-24T01:37:38;1.10;;;1.00;;
33188;SDS011;52601;53.070;10.600;2023-04-24T01:40:23;2.00;;;0.90;;
33188;SDS011;52601;53.070;10.600;2023-04-24T01:43:09;2.88;;;0.95;;
33188;SDS011;52601;53.070;10.600;2023-04-24T01:45:54;1.65;;;1.05;;
33188;SDS011;52601;53.070;10.600;2023-04-24T01:48:39;1.02;;;0.93;;
33188;SDS011;52601;53.070;10.600;2023-04-24T01:51:26;3.22;;;1.17;;
33188;SDS011;52601;53.070;10.600;2023-04-24T01:54:12;1.00;;;0.70;;
33188;SDS011;52601;53.070;10.600;2023-04-24T01:56:57;1.17;;;1.00;;
33188;SDS011;52601;53.070;10.600;2023-04-24T01:59:43;0.83;;;0.80;;
33188;SDS011;52601;53.070;10.600;2023-04-24T02:02:29;1.20;;;1.10;;
33188;SDS011;52601;53.070;10.600;2023-04-24T02:05:15;2.13;;;1.10;;
33188;SDS011;52601;53.070;10.600;2023-04-24T02:08:01;0.65;;;0.65;;
33188;SDS011;52601;53.070;10.600;2023-04-24T02:10:46;1.02;;;0.93;;
33188;SDS011;52601;53.070;10.600;2023-04-24T02:13:32;1.13;;;0.83;;
33188;SDS011;52601;53.070;10.600;2023-04-24T02:16:17;0.82;;;0.75;;
33188;SDS011;52601;53.070;10.600;2023-04-24T02:19:03;0.83;;;0.70;;
33188;SDS011;52601;53.070;10.600;2023-04-24T02:21:48;2.45;;;1.30;;
33188;SDS011;52601;53.070;10.600;2023-04-24T02:24:34;0.83;;;0.70;;
33188;SDS011;52601;53.070;10.600;2023-04-24T02:27:19;0.50;;;0.50;;
33188;SDS011;52601;53.070;10.600;2023-04-24T02:30:05;2.55;;;0.98;;
33188;SDS011;52601;53.070;10.600;2023-04-24T02:32:51;1.08;;;0.95;;
33188;SDS011;52601;53.070;10.600;2023-04-24T02:35:36;1.10;;;1.00;;
33188;SDS011;52601;53.070;10.600;2023-04-24T02:38:22;1.38;;;1.08;;
33188;SDS011;52601;53.070;10.600;2023-04-24T02:41:07;2.10;;;0.97;;
33188;SDS011;52601;53.070;10.600;2023-04-24T02:43:53;1.48;;;0.88;;
33188;SDS011;52601;53.070;10.600;2023-04-24T02:46:39;1.38;;;1.15;;
33188;SDS011;52601;53.070;10.600;2023-04-24T02:49:26;0.47;;;0.47;;
33188;SDS011;52601;53.070;10.600;2023-04-24T02:52:12;0.93;;;0.60;;
33188;SDS011;52601;53.070;10.600;2023-04-24T02:54:58;1.20;;;0.77;;
33188;SDS011;52601;53.070;10.600;2023-04-24T02:57:43;0.60;;;0.40;;
33188;SDS011;52601;53.070;10.600;2023-04-24T03:00:29;0.53;;;0.30;;
33188;SDS011;52601;53.070;10.600;2023-04-24T03:03:14;0.82;;;0.70;;
33188;SDS011;52601;53.070;10.600;2023-04-24T03:06:00;3.87;;;0.63;;
33188;SDS011;52601;53.070;10.600;2023-04-24T03:11:32;1.65;;;0.68;;
33188;SDS011;52601;53.070;10.600;2023-04-24T03:14:17;1.40;;;0.60;;
33188;SDS011;52601;53.070;10.600;2023-04-24T03:17:02;0.30;;;0.30;;
33188;SDS011;52601;53.070;10.600;2023-04-24T03:19:48;0.45;;;0.45;;
33188;SDS011;52601;53.070;10.600;2023-04-24T03:22:33;0.40;;;0.40;;
33188;SDS011;52601;53.070;10.600;2023-04-24T03:25:19;0.55;;;0.40;;
33188;SDS011;52601;53.070;10.600;2023-04-24T03:28:05;1.40;;;0.90;;
33188;SDS011;52601;53.070;10.600;2023-04-24T03:30:50;0.28;;;0.28;;
33188;SDS011;52601;53.070;10.600;2023-04-24T03:33:37;0.32;;;0.32;;
33188;SDS011;52601;53.070;10.600;2023-04-24T03:36:22;0.43;;;0.22;;
33188;SDS011;52601;53.070;10.600;2023-04-24T03:39:07;0.40;;;0.30;;
33188;SDS011;52601;53.070;10.600;2023-04-24T03:41:53;0.30;;;0.30;;
33188;SDS011;52601;53.070;10.600;2023-04-24T03:44:38;0.50;;;0.50;;
33188;SDS011;52601;53.070;10.600;2023-04-24T03:47:24;1.47;;;0.70;;
33188;SDS011;52601;53.070;10.600;2023-04-24T03:50:09;0.60;;;0.60;;
33188;SDS011;52601;53.070;10.600;2023-04-24T03:52:57;1.23;;;0.65;;
33188;SDS011;52601;53.070;10.600;2023-04-24T03:55:43;0.40;;;0.40;;
33188;SDS011;52601;53.070;10.600;2023-04-24T03:58:28;0.60;;;0.60;;
33188;SDS011;52601;53.070;10.600;2023-04-24T04:01:14;0.68;;;0.68;;
33188;SDS011;52601;53.070;10.600;2023-04-24T04:04:01;0.50;;;0.50;;
33188;SDS011;52601;53.070;10.600;2023-04-24T04:06:47;0.67;;;0.60;;
33188;SDS011;52601;53.070;10.600;2023-04-24T04:09:32;0.40;;;0.38;;
33188;SDS011;52601;53.070;10.600;2023-04-24T04:12:18;1.10;;;0.50;;
33188;SDS011;52601;53.070;10.600;2023-04-24T04:15:03;1.17;;;0.40;;
33188;SDS011;52601;53.070;10.600;2023-04-24T04:17:51;0.80;;;0.73;;
33188;SDS011;52601;53.070;10.600;2023-04-24T04:20:36;0.55;;;0.55;;
33188;SDS011;52601;53.070;10.600;2023-04-24T04:23:22;1.30;;;0.80;;
33188;SDS011;52601;53.070;10.600;2023-04-24T04:26:08;0.95;;;0.65;;
33188;SDS011;52601;53.070;10.600;2023-04-24T04:28:53;0.93;;;0.80;;
33188;SDS011;52601;53.070;10.600;2023-04-24T04:31:39;0.90;;;0.65;;
33188;SDS011;52601;53.070;10.600;2023-04-24T04:34:25;1.37;;;0.60;;
33188;SDS011;52601;53.070;10.600;2023-04-24T04:37:11;0.43;;;0.40;;
33188;SDS011;52601;53.070;10.600;2023-04-24T04:42:45;0.70;;;0.60;;
33188;SDS011;52601;53.070;10.600;2023-04-24T04:45:31;1.65;;;0.70;;
33188;SDS011;52601;53.070;10.600;2023-04-24T04:51:03;0.50;;;0.50;;
33188;SDS011;52601;53.070;10.600;2023-04-24T04:53:49;0.50;;;0.50;;
33188;SDS011;52601;53.070;10.600;2023-04-24T04:56:35;0.77;;;0.60;;
33188;SDS011;52601;53.070;10.600;2023-04-24T04:59:22;2.10;;;1.02;;
33188;SDS011;52601;53.070;10.600;2023-04-24T05:02:08;1.77;;;0.77;;
33188;SDS011;52601;53.070;10.600;2023-04-24T05:04:53;0.88;;;0.68;;
33188;SDS011;52601;53.070;10.600;2023-04-24T05:07:39;1.58;;;0.40;;
33188;SDS011;52601;53.070;10.600;2023-04-24T05:10:25;0.67;;;0.67;;
33188;SDS011;52601;53.070;10.600;2023-04-24T05:13:10;1.42;;;0.55;;
33188;SDS011;52601;53.070;10.600;2023-04-24T05:15:58;1.25;;;0.70;;
33188;SDS011;52601;53.070;10.600;2023-04-24T05:18:44;0.88;;;0.70;;
33188;SDS011;52601;53.070;10.600;2023-04-24T05:21:30;1.00;;;0.50;;
33188;SDS011;52601;53.070;10.600;2023-04-24T05:24:16;0.65;;;0.45;;
33188;SDS011;52601;53.070;10.600;2023-04-24T05:27:02;0.40;;;0.40;;
33188;SDS011;52601;53.070;10.600;2023-04-24T05:29:48;0.40;;;0.40;;
33188;SDS011;52601;53.070;10.600;2023-04-24T05:32:34;4.78;;;1.00;;
33188;SDS011;52601;53.070;10.600;2023-04-24T05:35:20;1.58;;;0.85;;
33188;SDS011;52601;53.070;10.600;2023-04-24T05:38:05;0.45;;;0.45;;
33188;SDS011;52601;53.070;10.600;2023-04-24T05:40:51;0.70;;;0.40;;
33188;SDS011;52601;53.070;10.600;2023-04-24T05:43:36;1.30;;;0.60;;
33188;SDS011;52601;53.070;10.600;2023-04-24T05:46:21;0.50;;;0.30;;
33188;SDS011;52601;53.070;10.600;2023-04-24T05:49:07;0.30;;;0.30;;
33188;SDS011;52601;53.070;10.600;2023-04-24T05:51:53;0.52;;;0.40;;
33188;SDS011;52601;53.070;10.600;2023-04-24T05:54:38;0.70;;;0.43;;
33188;SDS011;52601;53.070;10.600;2023-04-24T05:57:24;0.30;;;0.30;;
33188;SDS011;52601;53.070;10.600;2023-04-24T06:00:10;0.60;;;0.32;;
33188;SDS011;52601;53.070;10.600;2023-04-24T06:02:57;0.60;;;0.50;;
33188;SDS011;52601;53.070;10.600;2023-04-24T06:05:42;0.47;;;0.47;;
33188;SDS011;52601;53.070;10.600;2023-04-24T06:08:28;2.47;;;0.40;;
33188;SDS011;52601;53.070;10.600;2023-04-24T06:11:13;1.63;;;0.80;;
33188;SDS011;52601;53.070;10.600;2023-04-24T06:13:59;1.95;;;0.40;;
33188;SDS011;52601;53.070;10.600;2023-04-24T06:16:45;1.02;;;0.60;;
33188;SDS011;52601;53.070;10.600;2023-04-24T06:19:34;3.33;;;0.63;;
33188;SDS011;52601;53.070;10.600;2023-04-24T06:22:19;0.30;;;0.30;;
33188;SDS011;52601;53.070;10.600;2023-04-24T06:25:05;0.53;;;0.40;;
33188;SDS011;52601;53.070;10.600;2023-04-24T06:27:52;1.05;;;0.40;;
33188;SDS011;52601;53.070;10.600;2023-04-24T06:30:38;0.30;;;0.30;;
33188;SDS011;52601;53.070;10.600;2023-04-24T06:33:23;0.40;;;0.40;;
33188;SDS011;52601;53.070;10.600;2023-04-24T06:36:09;0.63;;;0.60;;
33188;SDS011;52601;53.070;10.600;2023-04-24T06:41:41;0.60;;;0.40;;
33188;SDS011;52601;53.070;10.600;2023-04-24T06:44:27;1.95;;;0.40;;
33188;SDS011;52601;53.070;10.600;2023-04-24T06:47:13;0.40;;;0.40;;
33188;SDS011;52601;53.070;10.600;2023-04-24T06:49:58;0.73;;;0.57;;
33188;SDS011;52601;53.070;10.600;2023-04-24T06:52:44;0.50;;;0.47;;
33188;SDS011;52601;53.070;10.600;2023-04-24T06:55:30;0.52;;;0.52;;
33188;SDS011;52601;53.070;10.600;2023-04-24T06:58:16;0.45;;;0.45;;
33188;SDS011;52601;53.070;10.600;2023-04-24T07:01:04;0.25;;;0.20;;
33188;SDS011;52601;53.070;10.600;2023-04-24T07:03:50;0.32;;;0.22;;
33188;SDS011;52601;53.070;10.600;2023-04-24T07:06:36;1.17;;;0.38;;
33188;SDS011;52601;53.070;10.600;2023-04-24T07:09:23;0.70;;;0.50;;
33188;SDS011;52601;53.070;10.600;2023-04-24T07:12:10;0.32;;;0.30;;
33188;SDS011;52601;53.070;10.600;2023-04-24T07:14:57;1.75;;;0.60;;
33188;SDS011;52601;53.070;10.600;2023-04-24T07:17:42;0.30;;;0.30;;
33188;SDS011;52601;53.070;10.600;2023-04-24T07:23:14;0.45;;;0.38;;
33188;SDS011;52601;53.070;10.600;2023-04-24T07:26:00;1.60;;;0.30;;
33188;SDS011;52601;53.070;10.600;2023-04-24T07:28:46;1.48;;;0.60;;
33188;SDS011;52601;53.070;10.600;2023-04-24T07:31:32;0.28;;;0.17;;
33188;SDS011;52601;53.070;10.600;2023-04-24T07:34:17;0.43;;;0.40;;
33188;SDS011;52601;53.070;10.600;2023-04-24T07:37:03;0.60;;;0.33;;
33188;SDS011;52601;53.070;10.600;2023-04-24T07:39:48;1.53;;;0.50;;
33188;SDS011;52601;53.070;10.600;2023-04-24T07:42:34;0.32;;;0.32;;
33188;SDS011;52601;53.070;10.600;2023-04-24T07:45:21;0.20;;;0.20;;
33188;SDS011;52601;53.070;10.600;2023-04-24T07:48:08;1.40;;;0.70;;
33188;SDS011;52601;53.070;10.600;2023-04-24T07:50:54;0.35;;;0.32;;
33188;SDS011;52601;53.070;10.600;2023-04-24T07:53:40;0.20;;;0.20;;
33188;SDS011;52601;53.070;10.600;2023-04-24T07:56:26;0.30;;;0.30;;
33188;SDS011;52601;53.070;10.600;2023-04-24T07:59:12;0.65;;;0.43;;
33188;SDS011;52601;53.070;10.600;2023-04-24T08:01:57;1.70;;;0.32;;
33188;SDS011;52601;53.070;10.600;2023-04-24T08:04:43;0.20;;;0.20;;
33188;SDS011;52601;53.070;10.600;2023-04-24T08:07:29;0.38;;;0.38;;
33188;SDS011;52601;53.070;10.600;2023-04-24T08:10:15;0.30;;;0.30;;
33188;SDS011;52601;53.070;10.600;2023-04-24T08:13:00;0.43;;;0.40;;
33188;SDS011;52601;53.070;10.600;2023-04-24T08:15:46;0.80;;;0.20;;
33188;SDS011;52601;53.070;10.600;2023-04-24T08:18:31;0.45;;;0.45;;
33188;SDS011;52601;53.070;10.600;2023-04-24T08:21:17;0.20;;;0.20;;
33188;SDS011;52601;53.070;10.600;2023-04-24T08:24:03;0.68;;;0.40;;
33188;SDS011;52601;53.070;10.600;2023-04-24T08:26:53;0.25;;;0.25;;
33188;SDS011;52601;53.070;10.600;2023-04-24T08:29:39;1.52;;;0.25;;
33188;SDS011;52601;53.070;10.600;2023-04-24T08:32:24;1.05;;;0.38;;
33188;SDS011;52601;53.070;10.600;2023-04-24T08:35:12;0.30;;;0.30;;
33188;SDS011;52601;53.070;10.600;2023-04-24T08:37:58;0.50;;;0.38;;
33188;SDS011;52601;53.070;10.600;2023-04-24T08:40:43;0.20;;;0.20;;
33188;SDS011;52601;53.070;10.600;2023-04-24T08:43:31;0.43;;;0.20;;
33188;SDS011;52601;53.070;10.600;2023-04-24T08:46:18;0.40;;;0.40;;
33188;SDS011;52601;53.070;10.600;2023-04-24T08:49:04;0.35;;;0.30;;
33188;SDS011;52601;53.070;10.600;2023-04-24T08:51:50;0.63;;;0.63;;
33188;SDS011;52601;53.070;10.600;2023-04-24T08:54:37;0.65;;;0.55;;
33188;SDS011;52601;53.070;10.600;2023-04-24T09:00:09;0.82;;;0.77;;
33188;SDS011;52601;53.070;10.600;2023-04-24T09:02:56;1.30;;;0.90;;
33188;SDS011;52601;53.070;10.600;2023-04-24T09:05:46;0.93;;;0.80;;
33188;SDS011;52601;53.070;10.600;2023-04-24T09:08:34;0.80;;;0.80;;
33188;SDS011;52601;53.070;10.600;2023-04-24T09:14:09;2.20;;;1.17;;
33188;SDS011;52601;53.070;10.600;2023-04-24T09:16:55;0.82;;;0.65;;
33188;SDS011;52601;53.070;10.600;2023-04-24T09:19:41;0.98;;;0.70;;
33188;SDS011;52601;53.070;10.600;2023-04-24T09:22:30;0.70;;;0.70;;
33188;SDS011;52601;53.070;10.600;2023-04-24T09:25:16;2.58;;;0.98;;
33188;SDS011;52601;53.070;10.600;2023-04-24T09:28:02;1.20;;;0.83;;
33188;SDS011;52601;53.070;10.600;2023-04-24T09:30:55;0.85;;;0.85;;
33188;SDS011;52601;53.070;10.600;2023-04-24T09:33:55;1.63;;;1.10;;
33188;SDS011;52601;53.070;10.600;2023-04-24T09:36:45;1.42;;;0.98;;
33188;SDS011;52601;53.070;10.600;2023-04-24T09:39:31;1.23;;;1.03;;
33188;SDS011;52601;53.070;10.600;2023-04-24T09:42:16;2.28;;;1.42;;
33188;SDS011;52601;53.070;10.600;2023-04-24T09:45:02;2.90;;;1.70;;
33188;SDS011;52601;53.070;10.600;2023-04-24T09:47:59;2.00;;;1.60;;
33188;SDS011;52601;53.070;10.600;2023-04-24T09:50:48;2.58;;;1.60;;
33188;SDS011;52601;53.070;10.600;2023-04-24T09:53:37;3.20;;;1.65;;
33188;SDS011;52601;53.070;10.600;2023-04-24T09:56:25;1.60;;;1.10;;
33188;SDS011;52601;53.070;10.600;2023-04-24T09:59:11;9.88;;;1.95;;
33188;SDS011;52601;53.070;10.600;2023-04-24T10:01:58;2.50;;;1.85;;
33188;SDS011;52601;53.070;10.600;2023-04-24T10:04:53;1.83;;;1.50;;
33188;SDS011;52601;53.070;10.600;2023-04-24T10:07:41;2.47;;;1.90;;
33188;SDS011;52601;53.070;10.600;2023-04-24T10:10:28;2.17;;;1.70;;
33188;SDS011;52601;53.070;10.600;2023-04-24T10:13:14;2.75;;;2.05;;
33188;SDS011;52601;53.070;10.600;2023-04-24T10:16:00;1.98;;;1.40;;
33188;SDS011;52601;53.070;10.600;2023-04-24T10:18:48;2.25;;;1.48;;
33188;SDS011;52601;53.070;10.600;2023-04-24T10:21:34;1.85;;;1.35;;
33188;SDS011;52601;53.070;10.600;2023-04-24T10:24:22;2.78;;;2.00;;
33188;SDS011;52601;53.070;10.600;2023-04-24T10:27:08;1.77;;;1.52;;
33188;SDS011;52601;53.070;10.600;2023-04-24T10:29:54;1.48;;;1.10;;
33188;SDS011;52601;53.070;10.600;2023-04-24T10:32:40;2.15;;;1.65;;
33188;SDS011;52601;53.070;10.600;2023-04-24T10:35:25;1.23;;;1.13;;
33188;SDS011;52601;53.070;10.600;2023-04-24T10:44:07;1.43;;;1.33;;
33188;SDS011;52601;53.070;10.600;2023-04-24T10:46:55;1.90;;;1.48;;
33188;SDS011;52601;53.070;10.600;2023-04-24T10:49:41;3.97;;;1.83;;
33188;SDS011;52601;53.070;10.600;2023-04-24T10:52:43;1.90;;;1.65;;
33188;SDS011;52601;53.070;10.600;2023-04-24T10:55:40;2.53;;;1.80;;
33188;SDS011;52601;53.070;10.600;2023-04-24T10:58:44;1.77;;;1.67;;
33188;SDS011;52601;53.070;10.600;2023-04-24T11:01:39;1.73;;;1.48;;
33188;SDS011;52601;53.070;10.600;2023-04-24T11:04:31;3.45;;;2.00;;
33188;SDS011;52601;53.070;10.600;2023-04-24T11:07:19;2.17;;;1.70;;
33188;SDS011;52601;53.070;10.600;2023-04-24T11:10:05;3.33;;;1.80;;
33188;SDS011;52601;53.070;10.600;2023-04-24T11:15:37;2.50;;;1.83;;
33188;SDS011;52601;53.070;10.600;2023-04-24T11:18:22;2.15;;;1.52;;
33188;SDS011;52601;53.070;10.600;2023-04-24T11:21:11;2.38;;;1.60;;
33188;SDS011;52601;53.070;10.600;2023-04-24T11:23:58;1.55;;;1.25;;
33188;SDS011;52601;53.070;10.600;2023-04-24T11:26:43;1.73;;;1.60;;
33188;SDS011;52601;53.070;10.600;2023-04-24T11:32:39;1.80;;;1.20;;
33188;SDS011;52601;53.070;10.600;2023-04-24T11:35:26;1.20;;;1.10;;
33188;SDS011;52601;53.070;10.600;2023-04-24T11:38:13;1.90;;;1.25;;
33188;SDS011;52601;53.070;10.600;2023-04-24T11:41:08;1.60;;;1.20;;
33188;SDS011;52601;53.070;10.600;2023-04-24T11:43:55;1.33;;;1.23;;
33188;SDS011;52601;53.070;10.600;2023-04-24T11:46:42;1.73;;;1.17;;
33188;SDS011;52601;53.070;10.600;2023-04-24T11:49:28;1.20;;;1.07;;
33188;SDS011;52601;53.070;10.600;2023-04-24T11:52:15;0.85;;;0.82;;
33188;SDS011;52601;53.070;10.600;2023-04-24T11:55:00;1.52;;;1.15;;
33188;SDS011;52601;53.070;10.600;2023-04-24T12:00:33;1.45;;;1.35;;
33188;SDS011;52601;53.070;10.600;2023-04-24T12:03:19;1.05;;;0.95;;
33188;SDS011;52601;53.070;10.600;2023-04-24T12:06:06;1.52;;;1.27;;
33188;SDS011;52601;53.070;10.600;2023-04-24T12:08:55;0.95;;;0.80;;
33188;SDS011;52601;53.070;10.600;2023-04-24T12:14:48;1.27;;;1.17;;
33188;SDS011;52601;53.070;10.600;2023-04-24T12:17:35;1.95;;;1.27;;
33188;SDS011;52601;53.070;10.600;2023-04-24T12:20:26;1.02;;;0.93;;
33188;SDS011;52601;53.070;10.600;2023-04-24T12:23:12;0.98;;;0.90;;
33188;SDS011;52601;53.070;10.600;2023-04-24T12:25:59;2.80;;;1.00;;
33188;SDS011;52601;53.070;10.600;2023-04-24T12:28:47;0.90;;;0.90;;
33188;SDS011;52601;53.070;10.600;2023-04-24T12:31:34;1.23;;;1.13;;
33188;SDS011;52601;53.070;10.600;2023-04-24T12:34:20;1.17;;;1.03;;
33188;SDS011;52601;53.070;10.600;2023-04-24T12:37:10;1.75;;;1.20;;
33188;SDS011;52601;53.070;10.600;2023-04-24T12:40:00;0.85;;;0.80;;
33188;SDS011;52601;53.070;10.600;2023-04-24T12:42:53;1.35;;;1.13;;
33188;SDS011;52601;53.070;10.600;2023-04-24T12:45:41;0.85;;;0.85;;
33188;SDS011;52601;53.070;10.600;2023-04-24T12:48:27;1.67;;;1.13;;
33188;SDS011;52601;53.070;10.600;2023-04-24T12:51:13;1.58;;;1.10;;
33188;SDS011;52601;53.070;10.600;2023-04-24T12:53:59;1.00;;;0.90;;
33188;SDS011;52601;53.070;10.600;2023-04-24T12:56:45;1.10;;;1.00;;
33188;SDS011;52601;53.070;10.600;2023-04-24T12:59:30;0.80;;;0.80;;
33188;SDS011;52601;53.070;10.600;2023-04-24T13:02:16;1.67;;;0.85;;
33188;SDS011;52601;53.070;10.600;2023-04-24T13:05:05;1.05;;;0.90;;
33188;SDS011;52601;53.070;10.600;2023-04-24T13:07:50;3.70;;;1.30;;
33188;SDS011;52601;53.070;10.600;2023-04-24T13:10:36;2.67;;;1.10;;
33188;SDS011;52601;53.070;10.600;2023-04-24T13:13:21;1.08;;;1.02;;
33188;SDS011;52601;53.070;10.600;2023-04-24T13:16:07;1.55;;;1.08;;
33188;SDS011;52601;53.070;10.600;2023-04-24T13:18:52;1.85;;;1.10;;
33188;SDS011;52601;53.070;10.600;2023-04-24T13:21:38;3.55;;;1.40;;
33188;SDS011;52601;53.070;10.600;2023-04-24T13:24:23;1.88;;;1.05;;
33188;SDS011;52601;53.070;10.600;2023-04-24T13:27:10;1.10;;;0.98;;
33188;SDS011;52601;53.070;10.600;2023-04-24T13:29:56;0.82;;;0.82;;
33188;SDS011;52601;53.070;10.600;2023-04-24T13:32:41;1.80;;;1.00;;
33188;SDS011;52601;53.070;10.600;2023-04-24T13:35:27;1.40;;;1.05;;
33188;SDS011;52601;53.070;10.600;2023-04-24T13:38:13;0.70;;;0.60;;
33188;SDS011;52601;53.070;10.600;2023-04-24T13:40:59;0.80;;;0.77;;
33188;SDS011;52601;53.070;10.600;2023-04-24T13:43:45;3.72;;;1.10;;
33188;SDS011;52601;53.070;10.600;2023-04-24T13:46:31;2.45;;;0.70;;
33188;SDS011;52601;53.070;10.600;2023-04-24T13:49:16;1.23;;;0.90;;
33188;SDS011;52601;53.070;10.600;2023-04-24T13:52:02;0.60;;;0.52;;
33188;SDS011;52601;53.070;10.600;2023-04-24T13:54:47;1.10;;;1.00;;
33188;SDS011;52601;53.070;10.600;2023-04-24T13:57:33;2.90;;;0.60;;
33188;SDS011;52601;53.070;10.600;2023-04-24T14:00:19;0.87;;;0.50;;
33188;SDS011;52601;53.070;10.600;2023-04-24T14:03:05;0.70;;;0.70;;
33188;SDS011;52601;53.070;10.600;2023-04-24T14:05:51;0.43;;;0.43;;
33188;SDS011;52601;53.070;10.600;2023-04-24T14:08:36;0.77;;;0.40;;
33188;SDS011;52601;53.070;10.600;2023-04-24T14:11:22;0.65;;;0.40;;
33188;SDS011;52601;53.070;10.600;2023-04-24T14:14:08;0.50;;;0.40;;
33188;SDS011;52601;53.070;10.600;2023-04-24T14:16:53;0.50;;;0.50;;
33188;SDS011;52601;53.070;10.600;2023-04-24T14:19:39;0.50;;;0.50;;
33188;SDS011;52601;53.070;10.600;2023-04-24T14:22:24;0.98;;;0.68;;
33188;SDS011;52601;53.070;10.600;2023-04-24T14:25:10;0.50;;;0.50;;
33188;SDS011;52601;53.070;10.600;2023-04-24T14:27:56;0.50;;;0.50;;
33188;SDS011;52601;53.070;10.600;2023-04-24T14:30:41;0.60;;;0.60;;
33188;SDS011;52601;53.070;10.600;2023-04-24T14:33:27;0.55;;;0.40;;
33188;SDS011;52601;53.070;10.600;2023-04-24T14:36:12;0.77;;;0.60;;
33188;SDS011;52601;53.070;10.600;2023-04-24T14:38:58;1.45;;;0.30;;
33188;SDS011;52601;53.070;10.600;2023-04-24T14:41:44;0.60;;;0.60;;
33188;SDS011;52601;53.070;10.600;2023-04-24T14:44:29;0.75;;;0.60;;
33188;SDS011;52601;53.070;10.600;2023-04-24T14:47:14;0.52;;;0.50;;
33188;SDS011;52601;53.070;10.600;2023-04-24T14:50:02;0.57;;;0.52;;
33188;SDS011;52601;53.070;10.600;2023-04-24T14:52:48;0.73;;;0.50;;
33188;SDS011;52601;53.070;10.600;2023-04-24T14:55:34;0.63;;;0.30;;
33188;SDS011;52601;53.070;10.600;2023-04-24T14:58:21;0.22;;;0.20;;
33188;SDS011;52601;53.070;10.600;2023-04-24T15:01:07;1.00;;;0.40;;
33188;SDS011;52601;53.070;10.600;2023-04-24T15:03:52;0.20;;;0.20;;
33188;SDS011;52601;53.070;10.600;2023-04-24T15:06:38;8.48;;;0.28;;
33188;SDS011;52601;53.070;10.600;2023-04-24T15:09:24;0.28;;;0.20;;
33188;SDS011;52601;53.070;10.600;2023-04-24T15:12:10;0.20;;;0.20;;
33188;SDS011;52601;53.070;10.600;2023-04-24T15:14:57;0.32;;;0.30;;
33188;SDS011;52601;53.070;10.600;2023-04-24T15:17:44;0.30;;;0.30;;
33188;SDS011;52601;53.070;10.600;2023-04-24T15:20:30;0.43;;;0.28;;
33188;SDS011;52601;53.070;10.600;2023-04-24T15:23:15;1.45;;;0.40;;
33188;SDS011;52601;53.070;10.600;2023-04-24T15:26:01;0.60;;;0.60;;
33188;SDS011;52601;53.070;10.600;2023-04-24T15:28:47;1.20;;;1.00;;
33188;SDS011;52601;53.070;10.600;2023-04-24T15:31:32;1.00;;;1.00;;
33188;SDS011;52601;53.070;10.600;2023-04-24T15:34:18;1.10;;;1.00;;
33188;SDS011;52601;53.070;10.600;2023-04-24T15:37:03;0.95;;;0.75;;
33188;SDS011;52601;53.070;10.600;2023-04-24T15:39:49;1.58;;;1.20;;
33188;SDS011;52601;53.070;10.600;2023-04-24T15:42:35;3.05;;;1.17;;
33188;SDS011;52601;53.070;10.600;2023-04-24T15:45:21;1.30;;;1.10;;
33188;SDS011;52601;53.070;10.600;2023-04-24T15:48:07;2.75;;;1.17;;
33188;SDS011;52601;53.070;10.600;2023-04-24T15:50:53;1.67;;;1.00;;
33188;SDS011;52601;53.070;10.600;2023-04-24T15:53:38;2.13;;;1.23;;
33188;SDS011;52601;53.070;10.600;2023-04-24T15:56:23;1.27;;;1.10;;
33188;SDS011;52601;53.070;10.600;2023-04-24T15:59:09;1.20;;;1.03;;
33188;SDS011;52601;53.070;10.600;2023-04-24T16:01:55;2.80;;;1.00;;
33188;SDS011;52601;53.070;10.600;2023-04-24T16:04:40;1.20;;;1.10;;
33188;SDS011;52601;53.070;10.600;2023-04-24T16:07:26;1.57;;;0.90;;
33188;SDS011;52601;53.070;10.600;2023-04-24T16:10:11;2.05;;;1.38;;
33188;SDS011;52601;53.070;10.600;2023-04-24T16:12:57;5.03;;;1.40;;
33188;SDS011;52601;53.070;10.600;2023-04-24T16:15:45;2.65;;;1.20;;
33188;SDS011;52601;53.070;10.600;2023-04-24T16:18:30;1.70;;;1.13;;
33188;SDS011;52601;53.070;10.600;2023-04-24T16:21:16;1.33;;;1.23;;
33188;SDS011;52601;53.070;10.600;2023-04-24T16:24:01;2.20;;;1.23;;
33188;SDS011;52601;53.070;10.600;2023-04-24T16:26:47;2.23;;;1.20;;
33188;SDS011;52601;53.070;10.600;2023-04-24T16:29:33;2.83;;;1.45;;
33188;SDS011;52601;53.070;10.600;2023-04-24T16:32:19;1.47;;;1.33;;
33188;SDS011;52601;53.070;10.600;2023-04-24T16:35:04;4.35;;;1.42;;
33188;SDS011;52601;53.070;10.600;2023-04-24T16:37:49;1.15;;;1.05;;
33188;SDS011;52601;53.070;10.600;2023-04-24T16:40:35;1.70;;;1.27;;
33188;SDS011;52601;53.070;10.600;2023-04-24T16:43:21;1.40;;;1.30;;
33188;SDS011;52601;53.070;10.600;2023-04-24T16:46:06;1.60;;;1.50;;
33188;SDS011;52601;53.070;10.600;2023-04-24T16:48:52;2.30;;;1.30;;
33188;SDS011;52601;53.070;10.600;2023-04-24T16:51:37;1.38;;;1.27;;
33188;SDS011;52601;53.070;10.600;2023-04-24T16:54:23;3.37;;;1.60;;
33188;SDS011;52601;53.070;10.600;2023-04-24T16:57:08;4.37;;;1.70;;
33188;SDS011;52601;53.070;10.600;2023-04-24T16:59:54;3.05;;;1.48;;
33188;SDS011;52601;53.070;10.600;2023-04-24T17:02:39;0.93;;;0.82;;